createdAt,value
2022-08-09T00:00:13.815Z,19.04
2022-08-09T00:02:49.097Z,19.04
2022-08-09T00:06:17.559Z,19.07
2022-08-09T00:08:09.687Z,19.06
2022-08-09T00:10:40.933Z,19.06
2022-08-09T00:13:17.040Z,19.07
2022-08-09T00:15:58.735Z,19.07
2022-08-09T00:18:27.304Z,19.10
2022-08-09T00:20:56.181Z,19.09
2022-08-09T00:23:57.792Z,19.10
2022-08-09T00:26:11.124Z,19.12
2022-08-09T00:28:39.596Z,19.14
2022-08-09T00:31:50.497Z,19.14
2022-08-09T00:33:55.146Z,19.17
2022-08-09T00:36:27.213Z,19.17
2022-08-09T00:38:58.429Z,19.15
2022-08-09T00:44:14.660Z,19.17
2022-08-09T00:44:26.819Z,19.17
2022-08-09T00:47:04.574Z,19.18
2022-08-09T00:49:36.567Z,19.18
2022-08-09T00:52:06.123Z,19.19
2022-08-09T00:54:43.224Z,19.19
2022-08-09T00:57:12.705Z,19.20
2022-08-09T00:59:46.942Z,19.19
2022-08-09T01:02:25.317Z,19.19
2022-08-09T01:05:13.743Z,19.18
2022-08-09T01:08:00.729Z,19.17
2022-08-09T01:10:34.657Z,19.16
2022-08-09T01:13:11.819Z,19.14
2022-08-09T01:15:52.598Z,19.15
2022-08-09T01:18:30.144Z,19.12
2022-08-09T01:21:44.856Z,19.10
2022-08-09T01:24:24.054Z,19.10
2022-08-09T01:27:07.922Z,19.09
2022-08-09T01:29:55.527Z,19.07
2022-08-09T01:32:36.462Z,19.08
2022-08-09T01:35:28.370Z,19.08
2022-08-09T01:38:08.478Z,19.07
2022-08-09T01:40:43.084Z,19.05
2022-08-09T01:43:11.564Z,19.03
2022-08-09T01:45:44.831Z,18.98
2022-08-09T01:48:16.502Z,18.95
2022-08-09T01:50:49.034Z,18.93
2022-08-09T01:53:29.013Z,18.92
2022-08-09T01:56:09.199Z,18.90
2022-08-09T01:58:37.152Z,18.88
2022-08-09T02:01:05.870Z,18.87
2022-08-09T02:03:35.849Z,18.86
2022-08-09T02:06:06.778Z,18.86
2022-08-09T02:08:57.697Z,18.85
2022-08-09T02:11:42.621Z,18.85
2022-08-09T02:14:15.096Z,18.85
2022-08-09T02:17:14.783Z,18.84
2022-08-09T02:19:43.572Z,18.85
2022-08-09T02:22:19.043Z,18.84
2022-08-09T02:24:58.057Z,18.84
2022-08-09T02:27:57.409Z,18.82
2022-08-09T02:30:17.119Z,18.83
2022-08-09T02:32:47.382Z,18.79
2022-08-09T02:36:01.047Z,18.79
2022-08-09T02:38:11.309Z,18.77
2022-08-09T02:40:49.870Z,18.79
2022-08-09T02:43:21.147Z,18.77
2022-08-09T02:45:49.396Z,18.75
2022-08-09T02:48:30.803Z,18.74
2022-08-09T02:51:02.512Z,18.74
2022-08-09T02:53:35.221Z,18.72
2022-08-09T02:56:04.109Z,18.73
2022-08-09T02:58:37.009Z,18.72
2022-08-09T03:01:11.024Z,18.71
2022-08-09T03:04:16.578Z,18.70
2022-08-09T03:06:30.577Z,18.69
2022-08-09T03:08:57.918Z,18.71
2022-08-09T03:11:30.185Z,18.71
2022-08-09T03:14:13.121Z,18.69
2022-08-09T03:16:47.513Z,18.66
2022-08-09T03:19:59.553Z,18.66
2022-08-09T03:22:12.541Z,18.65
2022-08-09T03:25:06.185Z,18.61
2022-08-09T03:27:44.561Z,18.57
2022-08-09T03:30:28.074Z,18.56
2022-08-09T03:33:01.472Z,18.56
2022-08-09T03:36:11.267Z,18.57
2022-08-09T03:38:28.781Z,18.55
2022-08-09T03:40:58.066Z,18.55
2022-08-09T03:43:31.426Z,18.54
2022-08-09T03:46:05.126Z,18.53
2022-08-09T03:48:53.894Z,18.54
2022-08-09T03:51:56.819Z,18.55
2022-08-09T03:54:14.297Z,18.57
2022-08-09T03:56:41.899Z,18.58
2022-08-09T03:59:13.571Z,18.59
2022-08-09T04:01:44.385Z,18.60
2022-08-09T04:04:14.781Z,18.61
2022-08-09T04:06:43.993Z,18.63
2022-08-09T04:09:47.743Z,18.64
2022-08-09T04:12:11.946Z,18.64
2022-08-09T04:15:02.061Z,18.65
2022-08-09T04:17:42.496Z,18.68
2022-08-09T04:20:12.699Z,18.69
2022-08-09T04:22:41.271Z,18.69
2022-08-09T04:25:12.195Z,18.67
2022-08-09T04:27:48.951Z,18.68
2022-08-09T04:30:20.962Z,18.70
2022-08-09T04:32:51.074Z,18.72
2022-08-09T04:35:18.564Z,18.78
2022-08-09T04:37:49.923Z,18.80
2022-08-09T04:40:19.037Z,18.83
2022-08-09T04:42:48.584Z,18.86
2022-08-09T04:45:16.621Z,18.89
2022-08-09T04:48:01.115Z,18.92
2022-08-09T04:50:31.752Z,18.96
2022-08-09T04:53:02.134Z,18.96
2022-08-09T04:55:32.456Z,18.95
2022-08-09T04:58:09.440Z,18.96
2022-08-09T05:00:37.262Z,18.98
2022-08-09T05:03:12.860Z,19.01
2022-08-09T05:06:04.570Z,19.04
2022-08-09T05:08:35.996Z,19.08
2022-08-09T05:11:03.502Z,19.14
2022-08-09T05:13:38.920Z,19.19
2022-08-09T05:16:10.135Z,19.25
2022-08-09T05:18:58.730Z,19.29
2022-08-09T05:21:30.110Z,19.30
2022-08-09T05:24:01.646Z,19.35
2022-08-09T05:26:37.166Z,19.41
2022-08-09T05:29:21.972Z,19.49
2022-08-09T05:31:56.804Z,19.56
2022-08-09T05:34:32.492Z,19.58
2022-08-09T05:37:06.910Z,19.62
2022-08-09T05:39:43.435Z,19.66
2022-08-09T05:42:18.023Z,19.77
2022-08-09T05:44:52.976Z,19.86
2022-08-09T05:47:22.853Z,19.91
2022-08-09T05:50:24.511Z,20.00
2022-08-09T05:52:38.991Z,20.07
2022-08-09T05:55:08.790Z,20.14
2022-08-09T05:57:51.021Z,20.17
2022-08-09T06:00:28.802Z,20.21
2022-08-09T06:03:02.523Z,20.23
2022-08-09T06:05:57.189Z,20.29
2022-08-09T06:08:24.709Z,20.35
2022-08-09T06:10:53.871Z,20.44
2022-08-09T06:13:21.484Z,20.53
2022-08-09T06:15:51.706Z,20.57
2022-08-09T06:18:25.018Z,20.59
2022-08-09T06:20:54.820Z,20.59
2022-08-09T06:23:57.752Z,20.67
2022-08-09T06:26:13.565Z,20.79
2022-08-09T06:28:43.272Z,20.82
2022-08-09T06:31:10.986Z,20.85
2022-08-09T06:33:41.047Z,20.95
2022-08-09T06:36:09.457Z,21.04
2022-08-09T06:38:47.184Z,21.04
2022-08-09T06:41:18.958Z,21.14
2022-08-09T06:43:47.646Z,21.24
2022-08-09T06:46:40.534Z,21.29
2022-08-09T06:49:02.702Z,21.41
2022-08-09T06:51:29.792Z,21.55
2022-08-09T06:54:00.769Z,21.62
2022-08-09T06:56:31.026Z,21.67
2022-08-09T07:00:55.691Z,21.81
2022-08-09T07:01:54.122Z,21.94
2022-08-09T07:04:26.987Z,21.99
2022-08-09T07:06:59.901Z,22.13
2022-08-09T07:09:55.253Z,22.19
2022-08-09T07:12:17.847Z,22.24
2022-08-09T07:14:50.919Z,22.34
2022-08-09T07:17:21.477Z,22.46
2022-08-09T07:19:50.636Z,22.49
2022-08-09T07:22:34.666Z,22.55
2022-08-09T07:25:05.052Z,22.72
2022-08-09T07:27:33.968Z,22.76
2022-08-09T07:30:02.853Z,22.79
2022-08-09T07:32:32.022Z,22.98
2022-08-09T07:35:10.755Z,23.18
2022-08-09T07:37:44.639Z,23.23
2022-08-09T07:40:18.733Z,23.33
2022-08-09T07:43:00.504Z,23.45
2022-08-09T07:45:39.283Z,23.42
2022-08-09T07:48:28.498Z,23.43
2022-08-09T07:51:09.351Z,23.38
2022-08-09T07:54:05.354Z,23.44
2022-08-09T07:56:33.671Z,23.41
2022-08-09T07:59:01.893Z,23.56
2022-08-09T08:01:33.898Z,23.74
2022-08-09T08:04:03.100Z,23.88
2022-08-09T08:06:31.944Z,23.96
2022-08-09T08:09:04.872Z,24.04
2022-08-09T08:12:09.829Z,24.21
2022-08-09T08:14:21.037Z,24.32
2022-08-09T08:17:00.937Z,24.39
2022-08-09T08:19:35.225Z,24.58
2022-08-09T08:22:03.229Z,24.70
2022-08-09T08:24:35.429Z,24.84
2022-08-09T08:27:16.885Z,24.91
2022-08-09T08:29:50.105Z,24.94
2022-08-09T08:32:29.209Z,24.97
2022-08-09T08:34:58.512Z,25.12
2022-08-09T08:37:41.262Z,25.16
2022-08-09T08:40:17.194Z,25.20
2022-08-09T08:42:47.212Z,25.29
2022-08-09T08:45:15.031Z,25.39
2022-08-09T08:47:44.910Z,25.44
2022-08-09T08:50:15.689Z,25.46
2022-08-09T08:52:58.450Z,25.55
2022-08-09T08:55:27.742Z,25.66
2022-08-09T08:57:58.530Z,25.76
2022-08-09T09:00:30.559Z,25.78
2022-08-09T09:03:11.363Z,25.86
2022-08-09T09:05:59.021Z,26.00
2022-08-09T09:08:37.779Z,25.99
2022-08-09T09:11:07.271Z,25.98
2022-08-09T09:13:50.224Z,26.05
2022-08-09T09:16:29.748Z,26.02
2022-08-09T09:19:21.569Z,26.09
2022-08-09T09:22:11.772Z,26.20
2022-08-09T09:24:51.168Z,26.31
2022-08-09T09:28:05.905Z,26.27
2022-08-09T09:30:40.115Z,26.45
2022-08-09T09:33:16.668Z,26.56
2022-08-09T09:36:01.058Z,26.58
2022-08-09T09:38:44.580Z,26.53
2022-08-09T09:41:49.082Z,26.55
2022-08-09T09:44:32.708Z,26.63
2022-08-09T09:47:13.333Z,26.76
2022-08-09T09:50:07.293Z,26.85
2022-08-09T09:52:53.485Z,26.94
2022-08-09T09:55:31.387Z,26.96
2022-08-09T09:58:16.331Z,26.97
2022-08-09T10:00:54.545Z,26.89
2022-08-09T10:03:44.103Z,26.94
2022-08-09T10:06:13.018Z,27.12
2022-08-09T10:08:43.209Z,27.26
2022-08-09T10:12:07.584Z,27.36
2022-08-09T10:14:33.015Z,27.42
2022-08-09T10:17:50.755Z,27.25
2022-08-09T10:20:31.857Z,27.43
2022-08-09T10:23:13.746Z,27.58
2022-08-09T10:26:07.297Z,27.79
2022-08-09T10:28:34.256Z,27.83
2022-08-09T10:34:11.450Z,28.01
2022-08-09T10:36:37.428Z,28.04
2022-08-09T10:39:13.927Z,28.10
2022-08-09T10:41:43.560Z,28.24
2022-08-09T10:44:10.792Z,28.49
2022-08-09T10:48:19.203Z,28.62
2022-08-09T10:50:15.100Z,28.67
2022-08-09T10:52:52.129Z,28.72
2022-08-09T10:55:27.980Z,28.95
2022-08-09T10:57:59.809Z,28.96
2022-08-09T11:00:56.919Z,28.83
2022-08-09T11:03:51.019Z,28.95
2022-08-09T11:06:22.910Z,29.19
2022-08-09T11:08:53.425Z,29.48
2022-08-09T11:11:22.876Z,29.81
2022-08-09T11:14:28.298Z,30.05
2022-08-09T11:16:57.135Z,30.30
2022-08-09T11:20:11.229Z,30.57
2022-08-09T11:22:44.841Z,30.75
2022-08-09T11:25:11.984Z,30.94
2022-08-09T11:28:03.891Z,31.00
2022-08-09T11:30:33.306Z,31.09
2022-08-09T11:33:30.465Z,30.84
2022-08-09T11:35:59.414Z,30.54
2022-08-09T11:38:32.620Z,29.98
2022-08-09T11:41:10.119Z,29.90
2022-08-09T11:43:40.186Z,29.83
2022-08-09T11:46:08.825Z,29.40
2022-08-09T11:48:55.361Z,28.76
2022-08-09T11:53:15.377Z,28.70
2022-08-09T11:54:27.771Z,28.65
2022-08-09T11:57:55.529Z,28.99
2022-08-09T12:00:27.606Z,29.45
2022-08-09T12:02:57.534Z,29.96
2022-08-09T12:05:39.550Z,30.53
2022-08-09T12:08:09.358Z,31.02
2022-08-09T12:10:44.243Z,31.49
2022-08-09T12:14:08.269Z,31.93
2022-08-09T12:16:37.509Z,32.10
2022-08-09T12:19:06.500Z,31.95
2022-08-09T12:21:50.406Z,31.72
2022-08-09T12:24:24.493Z,31.65
2022-08-09T12:29:14.071Z,31.78
2022-08-09T12:30:01.866Z,31.88
2022-08-09T12:32:41.013Z,31.99
2022-08-09T12:35:12.369Z,31.91
2022-08-09T12:37:50.713Z,31.26
2022-08-09T12:40:23.237Z,31.26
2022-08-09T12:42:52.125Z,31.15
2022-08-09T12:45:35.044Z,31.42
2022-08-09T12:48:19.868Z,31.55
2022-08-09T12:50:55.481Z,32.08
2022-08-09T12:53:35.201Z,32.64
2022-08-09T12:56:39.697Z,32.97
2022-08-09T12:59:21.585Z,33.21
2022-08-09T13:02:00.594Z,33.68
2022-08-09T13:04:37.836Z,33.62
2022-08-09T13:07:16.566Z,33.64
2022-08-09T13:09:52.994Z,33.51
2022-08-09T13:12:23.180Z,33.51
2022-08-09T13:14:54.111Z,33.15
2022-08-09T13:17:44.403Z,32.54
2022-08-09T13:20:17.547Z,32.35
2022-08-09T13:23:01.543Z,32.27
2022-08-09T13:25:53.230Z,32.32
2022-08-09T13:28:34.644Z,32.67
2022-08-09T13:32:14.113Z,33.23
2022-08-09T13:33:58.048Z,33.37
2022-08-09T13:36:41.770Z,33.79
2022-08-09T13:41:54.894Z,34.41
2022-08-09T13:42:12.622Z,34.94
2022-08-09T13:44:42.856Z,34.81
2022-08-09T13:47:29.189Z,34.34
2022-08-09T13:50:02.470Z,33.75
2022-08-09T13:52:30.432Z,33.84
2022-08-09T13:55:00.401Z,34.51
2022-08-09T13:57:35.533Z,35.25
2022-08-09T14:00:12.246Z,35.29
2022-08-09T14:02:42.649Z,35.07
2022-08-09T14:06:00.432Z,35.30
2022-08-09T14:08:17.550Z,37.10
2022-08-09T14:10:52.610Z,39.32
2022-08-09T14:14:15.339Z,41.39
2022-08-09T14:16:14.283Z,42.52
2022-08-09T14:18:46.012Z,43.88
2022-08-09T14:21:22.527Z,45.55
2022-08-09T14:23:54.477Z,47.85
2022-08-09T14:26:31.900Z,49.47
2022-08-09T14:29:07.793Z,48.30
2022-08-09T14:31:53.915Z,48.29
2022-08-09T14:34:30.948Z,49.14
2022-08-09T14:37:06.651Z,49.43
2022-08-09T14:39:45.598Z,50.09
2022-08-09T14:42:32.159Z,50.41
2022-08-09T14:46:39.512Z,49.89
2022-08-09T14:47:58.163Z,49.98
2022-08-09T14:50:28.504Z,51.68
2022-08-09T14:52:55.599Z,52.02
2022-08-09T14:55:22.814Z,52.91
2022-08-09T14:57:49.919Z,54.23
2022-08-09T15:00:17.728Z,52.99
2022-08-09T15:02:47.137Z,52.70
2022-08-09T15:05:16.918Z,52.39
2022-08-09T15:07:45.619Z,50.06
2022-08-09T15:10:24.963Z,50.76
2022-08-09T15:12:56.908Z,47.28
2022-08-09T15:15:28.414Z,47.29
2022-08-09T15:17:56.396Z,47.38
2022-08-09T15:21:55.732Z,48.21
2022-08-09T15:24:00.707Z,48.26
2022-08-09T15:25:59.363Z,47.59
2022-08-09T15:28:27.756Z,49.06
2022-08-09T15:31:10.414Z,50.30
2022-08-09T15:34:17.709Z,50.20
2022-08-09T15:36:31.345Z,49.72
2022-08-09T15:38:59.884Z,49.21
2022-08-09T15:41:31.508Z,48.55
2022-08-09T15:44:03.756Z,47.30
2022-08-09T15:46:33.437Z,47.08
2022-08-09T15:49:20.834Z,47.53
2022-08-09T15:52:05.100Z,48.06
2022-08-09T15:54:50.480Z,47.09
2022-08-09T15:57:33.891Z,46.40
2022-08-09T16:00:11.013Z,44.84
2022-08-09T16:02:43.646Z,42.44
2022-08-09T16:05:22.427Z,41.92
2022-08-09T16:07:50.649Z,41.39
2022-08-09T16:10:56.600Z,40.37
2022-08-09T16:14:03.347Z,39.99
2022-08-09T16:16:17.234Z,38.89
2022-08-09T16:18:49.897Z,38.37
2022-08-09T16:21:25.461Z,38.35
2022-08-09T16:23:58.264Z,38.11
2022-08-09T16:26:35.146Z,38.25
2022-08-09T16:29:10.964Z,37.89
2022-08-09T16:32:19.836Z,37.14
2022-08-09T16:34:53.579Z,35.90
2022-08-09T16:37:52.934Z,35.20
2022-08-09T16:40:09.621Z,34.70
2022-08-09T16:42:37.608Z,34.53
2022-08-09T16:45:06.516Z,33.99
2022-08-09T16:48:41.898Z,33.68
2022-08-09T16:50:33.225Z,33.07
2022-08-09T16:53:02.373Z,32.66
2022-08-09T16:55:58.531Z,32.19
2022-08-09T16:58:25.305Z,31.80
2022-08-09T17:00:54.925Z,31.45
2022-08-09T17:03:22.794Z,31.08
2022-08-09T17:06:07.643Z,30.75
2022-08-09T17:08:46.287Z,30.56
2022-08-09T17:11:39.986Z,30.25
2022-08-09T17:14:26.403Z,29.90
2022-08-09T17:17:01.199Z,29.67
2022-08-09T17:20:06.074Z,29.55
2022-08-09T17:22:24.846Z,29.33
2022-08-09T17:25:03.088Z,29.14
2022-08-09T17:27:32.563Z,28.88
2022-08-09T17:29:59.734Z,28.58
2022-08-09T17:32:37.599Z,28.26
2022-08-09T17:35:11.402Z,28.05
2022-08-09T17:38:11.603Z,27.91
2022-08-09T17:40:33.194Z,27.65
2022-08-09T17:43:10.776Z,27.51
2022-08-09T17:46:05.703Z,27.25
2022-08-09T17:48:46.727Z,27.17
2022-08-09T17:51:20.081Z,27.07
2022-08-09T17:53:51.889Z,26.99
2022-08-09T17:56:29.299Z,26.86
2022-08-09T17:59:09.591Z,26.69
2022-08-09T18:01:57.788Z,26.51
2022-08-09T18:04:26.829Z,26.41
2022-08-09T18:06:54.924Z,26.30
2022-08-09T18:09:25.098Z,26.21
2022-08-09T18:12:14.850Z,26.09
2022-08-09T18:14:49.655Z,25.95
2022-08-09T18:17:26.805Z,25.81
2022-08-09T18:20:55.738Z,25.65
2022-08-09T18:22:44.241Z,25.55
2022-08-09T18:25:19.591Z,25.41
2022-08-09T18:28:03.116Z,25.28
2022-08-09T18:30:35.484Z,25.14
2022-08-09T18:33:13.421Z,24.98
2022-08-09T18:35:59.184Z,24.86
2022-08-09T18:38:27.699Z,24.73
2022-08-09T18:40:55.656Z,24.63
2022-08-09T18:43:23.461Z,24.53
2022-08-09T18:46:49.612Z,24.40
2022-08-09T18:48:37.693Z,24.28
2022-08-09T18:51:04.787Z,24.18
2022-08-09T18:54:00.769Z,24.07
2022-08-09T18:56:27.222Z,23.92
2022-08-09T18:59:00.987Z,23.81
2022-08-09T19:01:28.702Z,23.68
2022-08-09T19:04:10.570Z,23.59
2022-08-09T19:06:38.673Z,23.50
2022-08-09T19:09:06.915Z,23.41
2022-08-09T19:11:38.079Z,23.30
2022-08-09T19:14:08.470Z,23.20
2022-08-09T19:16:36.473Z,23.16
2022-08-09T19:19:25.221Z,23.06
2022-08-09T19:22:04.577Z,22.96
2022-08-09T19:24:38.732Z,22.87
2022-08-09T19:27:22.341Z,22.82
2022-08-09T19:30:22.455Z,22.76
2022-08-09T19:32:37.210Z,22.68
2022-08-09T19:35:04.913Z,22.60
2022-08-09T19:37:40.866Z,22.56
2022-08-09T19:40:20.265Z,22.46
2022-08-09T19:42:49.741Z,22.41
2022-08-09T19:45:17.451Z,22.35
2022-08-09T19:47:45.007Z,22.32
2022-08-09T19:50:49.587Z,22.27
2022-08-09T19:53:04.249Z,22.20
2022-08-09T19:55:53.135Z,22.13
2022-08-09T19:58:30.119Z,22.04
2022-08-09T20:00:58.008Z,21.98
2022-08-09T20:04:17.215Z,21.94
2022-08-09T20:06:23.028Z,21.88
2022-08-09T20:08:56.718Z,21.81
2022-08-09T20:11:26.438Z,21.75
2022-08-09T20:13:55.165Z,21.67
2022-08-09T20:16:35.161Z,21.61
2022-08-09T20:19:47.765Z,21.53
2022-08-09T20:21:57.506Z,21.48
2022-08-09T20:24:29.853Z,21.44
2022-08-09T20:27:02.814Z,21.39
2022-08-09T20:29:37.311Z,21.35
2022-08-09T20:32:30.303Z,21.34
2022-08-09T20:34:57.648Z,21.26
2022-08-09T20:37:25.450Z,21.20
2022-08-09T20:40:17.170Z,21.14
2022-08-09T20:42:53.139Z,21.08
2022-08-09T20:45:59.137Z,20.99
2022-08-09T20:48:13.798Z,20.94
2022-08-09T20:50:51.112Z,20.88
2022-08-09T20:53:36.564Z,20.81
2022-08-09T20:56:08.856Z,20.74
2022-08-09T20:58:36.182Z,20.69
2022-08-09T21:01:32.843Z,20.64
2022-08-09T21:04:08.135Z,20.57
2022-08-09T21:06:42.790Z,20.52
2022-08-09T21:09:13.458Z,20.51
2022-08-09T21:14:31.192Z,20.42
2022-08-09T21:17:00.353Z,20.39
2022-08-09T21:20:18.240Z,20.35
2022-08-09T21:22:35.995Z,20.29
2022-08-09T21:25:21.126Z,20.27
2022-08-09T21:27:51.204Z,20.23
2022-08-09T21:30:28.343Z,20.19
2022-08-09T21:32:55.465Z,20.14
2022-08-09T21:35:24.289Z,20.09
2022-08-09T21:37:59.702Z,20.06
2022-08-09T21:40:30.807Z,20.04
2022-08-09T21:43:00.252Z,20.00
2022-08-09T21:45:28.098Z,19.97
2022-08-09T21:47:55.721Z,19.94
2022-08-09T21:50:33.865Z,19.89
2022-08-09T21:53:15.550Z,19.85
2022-08-09T21:55:51.219Z,19.80
2022-08-09T21:58:18.346Z,19.76
2022-08-09T22:00:48.756Z,19.71
2022-08-09T22:03:25.419Z,19.66
2022-08-09T22:05:54.152Z,19.61
2022-08-09T22:08:24.432Z,19.55
2022-08-09T22:11:26.457Z,19.48
2022-08-09T22:13:43.401Z,19.45
2022-08-09T22:16:11.881Z,19.40
2022-08-09T22:18:44.193Z,19.36
2022-08-09T22:21:50.402Z,19.31
2022-08-09T22:24:17.087Z,19.30
2022-08-09T22:26:51.579Z,19.23
2022-08-09T22:29:28.769Z,19.19
2022-08-09T22:31:59.758Z,19.16
2022-08-09T22:34:27.616Z,19.13
2022-08-09T22:36:55.636Z,19.11
2022-08-09T22:39:55.757Z,19.05
2022-08-09T22:42:21.917Z,19.00
2022-08-09T22:45:02.452Z,18.95
2022-08-09T22:48:16.874Z,18.89
2022-08-09T22:50:27.624Z,18.85
2022-08-09T22:52:58.318Z,18.79
2022-08-09T22:55:39.648Z,18.76
2022-08-09T22:58:30.684Z,18.72
2022-08-09T23:01:04.708Z,18.67
2022-08-09T23:04:04.868Z,18.64
2022-08-09T23:06:34.838Z,18.60
2022-08-09T23:09:07.444Z,18.57
2022-08-09T23:11:34.843Z,18.52
2022-08-09T23:14:03.415Z,18.46
2022-08-09T23:16:31.646Z,18.42
2022-08-09T23:18:58.820Z,18.40
2022-08-09T23:21:30.066Z,18.33
2022-08-09T23:24:05.240Z,18.28
2022-08-09T23:26:37.443Z,18.22
2022-08-09T23:29:11.417Z,18.16
2022-08-09T23:31:38.536Z,18.12
2022-08-09T23:34:05.717Z,18.08
2022-08-09T23:36:34.333Z,18.03
2022-08-09T23:39:02.410Z,18.00
2022-08-09T23:41:29.938Z,17.96
2022-08-09T23:43:59.238Z,17.93
2022-08-09T23:46:27.520Z,17.91
2022-08-09T23:48:54.868Z,17.87
2022-08-09T23:51:22.192Z,17.86
2022-08-09T23:53:50.417Z,17.81
2022-08-09T23:56:51.946Z,17.80
2022-08-09T23:59:07.123Z,17.77
